createdAt,value
2022-08-24T00:01:42.989Z,3.08
2022-08-24T00:05:45.779Z,2.53
2022-08-24T00:09:49.977Z,2.47
2022-08-24T00:13:53.881Z,2.38
2022-08-24T00:17:57.266Z,2.47
2022-08-24T00:22:04.693Z,3.10
2022-08-24T00:26:08.824Z,2.45
2022-08-24T00:30:15.487Z,2.40
2022-08-24T00:38:21.177Z,2.15
2022-08-24T00:42:25.388Z,2.60
2022-08-24T00:46:43.721Z,2.50
2022-08-24T00:50:54.188Z,2.78
2022-08-24T00:55:07.996Z,2.42
2022-08-24T00:59:37.178Z,2.50
2022-08-24T01:03:42.064Z,2.08
2022-08-24T01:07:50.761Z,2.63
2022-08-24T01:11:54.153Z,2.60
2022-08-24T01:16:01.814Z,2.53
2022-08-24T01:20:07.027Z,2.55
2022-08-24T01:24:14.880Z,2.53
2022-08-24T01:28:25.185Z,2.45
2022-08-24T01:32:31.384Z,2.83
2022-08-24T01:36:45.997Z,4.03
2022-08-24T01:40:53.519Z,2.38
2022-08-24T01:44:57.711Z,2.30
2022-08-24T01:49:00.595Z,2.55
2022-08-24T01:53:06.229Z,2.60
2022-08-24T01:57:10.074Z,3.40
2022-08-24T02:01:18.652Z,2.88
2022-08-24T02:05:24.771Z,3.33
2022-08-24T02:09:30.402Z,2.58
2022-08-24T02:13:38.577Z,2.70
2022-08-24T02:17:44.112Z,2.67
2022-08-24T02:21:47.085Z,2.50
2022-08-24T02:25:50.050Z,3.17
2022-08-24T02:29:53.476Z,2.47
2022-08-24T02:33:56.695Z,3.25
2022-08-24T02:37:59.723Z,2.67
2022-08-24T02:42:04.207Z,3.55
2022-08-24T02:46:07.614Z,2.70
2022-08-24T02:50:18.176Z,3.10
2022-08-24T02:54:22.022Z,2.65
2022-08-24T02:58:27.288Z,2.63
2022-08-24T03:02:30.380Z,2.63
2022-08-24T03:06:34.606Z,3.53
2022-08-24T03:10:38.696Z,2.90
2022-08-24T03:14:42.197Z,2.30
2022-08-24T03:18:45.166Z,3.55
2022-08-24T03:22:50.185Z,2.35
2022-08-24T03:26:53.109Z,2.45
2022-08-24T03:30:55.966Z,2.85
2022-08-24T03:35:00.518Z,2.10
2022-08-24T03:39:03.617Z,1.85
2022-08-24T03:43:07.264Z,2.67
2022-08-24T03:47:10.830Z,1.52
2022-08-24T03:51:20.636Z,1.92
2022-08-24T03:55:25.650Z,2.00
2022-08-24T03:59:30.142Z,2.10
2022-08-24T04:03:43.311Z,2.45
2022-08-24T04:07:47.325Z,4.07
2022-08-24T04:11:52.055Z,10.13
2022-08-24T04:16:16.271Z,2.20
2022-08-24T04:20:25.355Z,2.25
2022-08-24T04:24:29.337Z,3.90
2022-08-24T04:28:32.388Z,2.15
2022-08-24T04:32:35.859Z,2.45
2022-08-24T04:36:41.378Z,2.50
2022-08-24T04:40:46.921Z,2.45
2022-08-24T04:44:51.653Z,2.20
2022-08-24T04:48:57.753Z,3.45
2022-08-24T04:53:00.873Z,2.97
2022-08-24T04:57:04.048Z,2.92
2022-08-24T05:01:15.982Z,2.75
2022-08-24T05:05:19.284Z,3.03
2022-08-24T05:09:22.546Z,2.70
2022-08-24T05:13:25.849Z,1.95
2022-08-24T05:17:29.096Z,3.55
2022-08-24T05:21:32.058Z,3.55
2022-08-24T05:25:35.762Z,2.20
2022-08-24T05:29:39.170Z,3.35
2022-08-24T05:33:42.244Z,2.20
2022-08-24T05:37:45.466Z,2.35
2022-08-24T05:41:51.678Z,4.53
2022-08-24T05:46:00.068Z,2.35
2022-08-24T05:50:03.674Z,3.35
2022-08-24T05:54:07.840Z,3.10
2022-08-24T05:58:30.970Z,2.75
2022-08-24T06:02:37.788Z,2.60
2022-08-24T06:06:41.948Z,2.83
2022-08-24T06:10:51.333Z,2.40
2022-08-24T06:14:54.808Z,2.40
2022-08-24T06:18:59.852Z,2.75
2022-08-24T06:23:05.218Z,6.32
2022-08-24T06:27:21.449Z,3.90
2022-08-24T06:31:25.391Z,3.88
2022-08-24T06:35:31.877Z,3.90
2022-08-24T06:39:35.779Z,2.90
2022-08-24T06:43:39.283Z,2.40
2022-08-24T06:47:50.084Z,3.08
2022-08-24T06:51:54.622Z,4.13
2022-08-24T06:56:00.503Z,2.63
2022-08-24T07:00:09.258Z,3.10
2022-08-24T07:04:12.988Z,1.85
2022-08-24T07:08:34.958Z,1.50
2022-08-24T07:12:41.838Z,1.33
2022-08-24T07:16:45.163Z,2.47
2022-08-24T07:20:49.961Z,1.55
2022-08-24T07:24:59.844Z,1.30
2022-08-24T07:29:36.845Z,1.20
2022-08-24T07:33:39.052Z,1.10
2022-08-24T07:37:42.606Z,1.13
2022-08-24T07:46:11.411Z,1.77
2022-08-24T07:50:16.179Z,2.00
2022-08-24T07:54:20.744Z,1.38
2022-08-24T07:58:24.815Z,0.98
2022-08-24T08:02:30.819Z,0.70
2022-08-24T08:06:39.147Z,1.38
2022-08-24T08:10:43.024Z,1.02
2022-08-24T08:14:46.466Z,1.48
2022-08-24T08:19:00.777Z,1.35
2022-08-24T08:23:28.768Z,0.75
2022-08-24T08:31:50.446Z,0.65
2022-08-24T08:36:01.910Z,1.05
2022-08-24T08:40:06.997Z,1.48
2022-08-24T08:44:31.854Z,1.73
2022-08-24T08:49:01.011Z,0.60
2022-08-24T08:53:16.080Z,0.55
2022-08-24T08:57:39.962Z,3.22
2022-08-24T09:02:07.637Z,1.40
2022-08-24T09:06:35.186Z,1.95
2022-08-24T09:11:02.268Z,0.80
2022-08-24T09:15:57.770Z,1.08
2022-08-24T09:20:20.246Z,1.63
2022-08-24T09:24:44.513Z,0.75
2022-08-24T09:29:30.558Z,2.90
2022-08-24T09:34:12.848Z,1.58
2022-08-24T09:38:40.700Z,2.70
2022-08-24T09:43:23.156Z,1.52
2022-08-24T09:48:03.648Z,1.63
2022-08-24T09:52:34.794Z,2.05
2022-08-24T09:57:11.674Z,1.33
2022-08-24T10:01:24.507Z,0.80
2022-08-24T10:05:34.659Z,3.08
2022-08-24T10:10:01.813Z,2.60
2022-08-24T10:14:14.047Z,0.70
2022-08-24T10:18:44.604Z,1.50
2022-08-24T10:23:08.361Z,1.80
2022-08-24T10:27:20.766Z,1.85
2022-08-24T10:32:11.382Z,2.50
2022-08-24T10:36:39.621Z,1.08
2022-08-24T10:41:21.675Z,1.67
2022-08-24T10:45:50.844Z,2.33
2022-08-24T10:50:30.807Z,1.25
2022-08-24T10:54:36.631Z,0.88
2022-08-24T10:58:45.702Z,3.23
2022-08-24T11:02:48.950Z,0.80
2022-08-24T11:07:24.056Z,1.80
2022-08-24T11:11:33.689Z,2.80
2022-08-24T11:15:49.763Z,1.75
2022-08-24T11:19:53.581Z,1.30
2022-08-24T11:24:02.698Z,0.98
2022-08-24T11:28:24.651Z,1.05
2022-08-24T11:32:45.095Z,0.80
2022-08-24T11:36:47.887Z,1.00
2022-08-24T11:40:52.579Z,1.17
2022-08-24T11:44:58.037Z,0.90
2022-08-24T11:49:14.577Z,0.88
2022-08-24T11:53:23.817Z,1.55
2022-08-24T11:57:48.076Z,1.20
2022-08-24T12:01:55.915Z,0.82
2022-08-24T12:06:07.754Z,0.70
2022-08-24T12:10:54.755Z,1.13
2022-08-24T12:15:02.947Z,1.25
2022-08-24T12:19:21.239Z,2.58
2022-08-24T12:23:39.200Z,2.95
2022-08-24T12:27:42.070Z,1.10
2022-08-24T12:32:15.142Z,0.70
2022-08-24T12:36:30.753Z,1.73
2022-08-24T12:40:45.087Z,1.60
2022-08-24T12:44:57.148Z,3.03
2022-08-24T12:49:20.299Z,2.35
2022-08-24T12:53:23.117Z,3.72
2022-08-24T12:57:33.737Z,1.67
2022-08-24T13:01:42.432Z,1.67
2022-08-24T13:05:48.607Z,1.17
2022-08-24T13:10:00.884Z,1.85
2022-08-24T13:14:20.376Z,0.60
2022-08-24T13:18:46.586Z,0.88
2022-08-24T13:23:06.585Z,1.20
2022-08-24T13:27:12.699Z,2.13
2022-08-24T13:31:24.796Z,1.05
2022-08-24T13:35:52.461Z,1.73
2022-08-24T13:40:17.702Z,0.80
2022-08-24T13:44:38.821Z,2.55
2022-08-24T13:49:01.830Z,1.05
2022-08-24T13:53:52.931Z,0.68
2022-08-24T13:58:14.862Z,2.03
2022-08-24T14:02:18.489Z,1.52
2022-08-24T14:06:40.458Z,1.15
2022-08-24T14:10:55.368Z,1.88
2022-08-24T14:15:25.873Z,1.45
2022-08-24T14:19:29.149Z,1.98
2022-08-24T14:23:52.665Z,1.63
2022-08-24T14:27:56.336Z,1.50
2022-08-24T14:32:08.678Z,2.47
2022-08-24T14:36:29.673Z,1.83
2022-08-24T14:40:56.864Z,1.70
2022-08-24T14:45:12.930Z,1.15
2022-08-24T14:49:44.946Z,1.50
2022-08-24T14:54:20.963Z,1.25
2022-08-24T14:58:50.232Z,2.55
2022-08-24T15:03:12.118Z,2.05
2022-08-24T15:07:38.509Z,1.48
2022-08-24T15:20:40.295Z,3.42
2022-08-24T15:24:51.668Z,2.22
2022-08-24T15:55:04.732Z,1.75
2022-08-24T16:03:53.326Z,1.63
2022-08-24T16:12:23.698Z,1.60
2022-08-24T16:16:44.300Z,1.67
2022-08-24T16:20:57.789Z,3.75
2022-08-24T16:29:45.984Z,3.42
2022-08-24T16:33:52.892Z,2.42
2022-08-24T17:04:06.794Z,2.53
2022-08-24T17:12:29.693Z,3.60
2022-08-24T17:16:33.607Z,1.75
2022-08-24T17:20:37.050Z,3.60
2022-08-24T17:24:41.194Z,3.03
2022-08-24T17:28:47.871Z,1.98
2022-08-24T17:32:59.424Z,2.92
2022-08-24T17:37:03.017Z,2.75
2022-08-24T17:41:10.670Z,2.05
2022-08-24T17:45:17.509Z,1.92
2022-08-24T17:49:22.350Z,2.33
2022-08-24T17:53:33.846Z,3.20
2022-08-24T17:57:39.677Z,3.63
2022-08-24T18:01:42.830Z,3.25
2022-08-24T18:05:48.090Z,3.13
2022-08-24T18:09:58.671Z,4.53
2022-08-24T18:14:01.972Z,4.93
2022-08-24T18:18:07.821Z,3.00
2022-08-24T18:22:11.841Z,2.60
2022-08-24T18:26:27.957Z,2.35
2022-08-24T18:34:50.212Z,3.45
2022-08-24T18:38:53.640Z,2.70
2022-08-24T18:42:59.112Z,3.05
2022-08-24T18:47:02.637Z,2.33
2022-08-24T18:51:06.129Z,2.17
2022-08-24T18:55:09.689Z,3.08
2022-08-24T18:59:15.857Z,2.70
2022-08-24T19:03:23.436Z,1.67
2022-08-24T19:07:28.213Z,3.45
2022-08-24T19:11:31.049Z,4.00
2022-08-24T19:15:39.908Z,2.30
2022-08-24T19:19:45.865Z,2.58
2022-08-24T19:23:48.907Z,4.28
2022-08-24T19:27:53.888Z,2.38
2022-08-24T19:31:57.453Z,2.95
2022-08-24T19:36:00.894Z,5.03
2022-08-24T19:40:04.926Z,4.55
2022-08-24T19:44:28.940Z,2.97
2022-08-24T19:48:34.163Z,3.13
2022-08-24T19:52:38.547Z,3.22
2022-08-24T19:56:41.611Z,3.40
2022-08-24T20:00:51.495Z,3.10
2022-08-24T20:04:54.650Z,3.75
2022-08-24T20:08:57.419Z,2.72
2022-08-24T20:13:01.587Z,3.55
2022-08-24T20:17:05.478Z,3.40
2022-08-24T20:21:09.091Z,3.08
2022-08-24T20:25:12.103Z,3.35
2022-08-24T20:29:15.330Z,3.47
2022-08-24T20:33:21.439Z,2.85
2022-08-24T20:37:29.865Z,7.82
2022-08-24T20:41:57.766Z,4.28
2022-08-24T20:46:01.790Z,3.67
2022-08-24T20:50:05.919Z,4.45
2022-08-24T20:54:08.902Z,4.18
2022-08-24T20:58:12.366Z,3.33
2022-08-24T21:02:15.610Z,3.17
2022-08-24T21:06:19.846Z,4.55
2022-08-24T21:10:26.707Z,4.43
2022-08-24T21:14:29.867Z,3.30
2022-08-24T21:18:33.729Z,3.75
2022-08-24T21:22:37.412Z,3.22
2022-08-24T21:26:40.519Z,3.92
2022-08-24T21:30:47.598Z,3.13
2022-08-24T21:34:50.538Z,3.33
2022-08-24T21:38:59.269Z,3.08
2022-08-24T21:43:02.396Z,3.90
2022-08-24T21:47:07.606Z,4.25
2022-08-24T21:51:10.813Z,4.65
2022-08-24T21:55:15.088Z,4.07
2022-08-24T21:59:20.132Z,3.92
2022-08-24T22:03:23.098Z,3.95
2022-08-24T22:07:26.173Z,3.72
2022-08-24T22:11:31.987Z,5.70
2022-08-24T22:15:37.121Z,5.07
2022-08-24T22:19:40.666Z,4.30
2022-08-24T22:23:44.363Z,4.00
2022-08-24T22:27:47.286Z,4.68
2022-08-24T22:31:50.149Z,5.55
2022-08-24T22:35:54.289Z,4.28
2022-08-24T22:39:58.245Z,3.28
2022-08-24T22:44:30.765Z,4.15
2022-08-24T22:48:34.929Z,4.03
2022-08-24T22:52:37.856Z,4.20
2022-08-24T22:56:47.788Z,4.00
2022-08-24T23:00:50.829Z,4.43
2022-08-24T23:04:56.178Z,4.35
2022-08-24T23:08:59.967Z,4.32
2022-08-24T23:13:02.786Z,5.55
2022-08-24T23:17:06.580Z,4.38
2022-08-24T23:21:13.614Z,4.10
2022-08-24T23:25:17.255Z,6.13
2022-08-24T23:29:23.463Z,4.82
2022-08-24T23:33:28.747Z,5.38
2022-08-24T23:37:38.177Z,5.03
2022-08-24T23:41:46.255Z,5.80
2022-08-24T23:45:49.711Z,4.47
2022-08-24T23:49:52.986Z,5.25
2022-08-24T23:53:57.425Z,6.15
2022-08-24T23:58:00.378Z,4.30
